Latest Weather Observations for Strahan

IDT60801

Issued at 1:05 am EDT Friday 24 October 2014 (issued every 30 minutes, with the page automatically refreshed every 10 minutes)

About weather observations | Map of weather stations | Latest weather observations for TAS | Other Formats
Station Details ID: 097072 Name: STRAHAN AERODROME Lat: -42.16 Lon: 145.29 Height: 21.0 m
Data from the previous 72 hours. | See also: Recent months at Strahan
Date/Time
EDT
Temp
°C
App
Temp
°C
Dew
Point
Rel
Hum
%
Delta-T
°C
Wind Press
QNH
hPa
Press
MSL
hPa
Rain
since 9 am
mm
Dir
 
Spd
km/h
Gust
km/h
Spd
kts
Gust
kts
24/01:00am 6.6 4.5 5.6 93 0.4 NE 6 7 3 4 1020.4 1020.4 0.0
24/12:30am 7.5 5.4 6.6 94 0.4 NNE 7 9 4 5 1020.9 1020.9 0.0
24/12:00am 7.0 4.9 5.8 92 0.5 N 6 7 3 4 1021.2 1021.2 0.0
 
Date/Time
EDT
Temp
°C
App
Temp
°C
Dew
Point
Rel
Hum
%
Delta-T
°C
Wind Press
QNH
hPa
Press
MSL
hPa
Rain
since 9 am
mm
Dir
 
Spd
km/h
Gust
km/h
Spd
kts
Gust
kts
23/11:30pm 7.4 5.2 6.0 91 0.6 N 7 9 4 5 1021.5 1021.5 0.0
23/11:00pm 7.8 5.6 6.3 90 0.7 N 7 7 4 4 1021.6 1021.6 0.0
23/10:30pm 8.5 6.1 6.8 89 0.8 N 9 11 5 6 1021.8 1021.8 0.0
23/10:02pm 8.9 6.5 7.0 88 0.9 N 9 11 5 6 1021.7 1021.7 0.0
23/10:00pm 8.9 6.5 7.0 88 0.9 N 9 11 5 6 1021.7 1021.7 0.0
23/09:30pm 9.7 8.1 8.1 90 0.8 NNW 6 7 3 4 1021.9 1021.9 0.0
23/09:00pm 9.9 7.7 7.7 86 1.0 NNW 9 11 5 6 1021.7 1021.7 0.0
23/08:30pm 10.8 8.6 7.9 82 1.4 NNW 9 9 5 5 1021.4 1021.4 0.0
23/08:00pm 11.8 9.7 8.1 78 1.8 NNW 9 9 5 5 1021.5 1021.5 0.0
23/07:33pm 13.2 11.3 7.4 68 2.8 NW 7 9 4 5 1021.3 1021.3 0.0
23/07:30pm 13.4 11.5 7.4 67 2.9 NW 7 9 4 5 1021.3 1021.3 0.0
23/07:00pm 15.2 13.0 6.2 55 4.3 W 7 11 4 6 1021.2 1021.2 0.0
23/06:30pm 15.7 13.1 5.9 52 4.7 W 9 13 5 7 1021.4 1021.4 0.0
23/06:00pm 15.9 12.3 5.2 49 5.1 W 13 19 7 10 1021.3 1021.3 0.0
23/05:30pm 16.5 13.5 5.8 49 5.2 W 11 17 6 9 1021.3 1021.3 0.0
23/05:00pm 17.1 13.8 6.3 49 5.3 WSW 13 20 7 11 1021.2 1021.2 0.0
23/04:30pm 17.8 13.9 7.2 50 5.3 W 17 22 9 12 1021.1 1021.1 0.0
23/04:00pm 17.6 13.0 6.5 48 5.5 W 20 28 11 15 1021.0 1021.0 0.0
23/03:30pm 18.6 14.5 6.1 44 6.2 W 17 22 9 12 1020.8 1020.8 0.0
23/03:00pm 18.9 14.5 6.7 45 6.1 W 19 24 10 13 1020.8 1020.8 0.0
23/02:30pm 19.2 15.0 7.6 47 5.9 W 19 24 10 13 1020.8 1020.8 0.0
23/02:00pm 20.1 16.4 7.8 45 6.3 W 17 22 9 12 1020.9 1020.9 0.0
23/01:30pm 20.3 16.4 7.3 43 6.6 WSW 17 22 9 12 1020.9 1020.9 0.0
23/01:06pm 18.9 14.8 4.3 38 7.0 S 15 20 8 11 1021.0 1021.0 0.0
23/01:00pm 19.6 15.4 5.6 40 6.9 S 17 22 9 12 1021.0 1021.0 0.0
23/12:52pm 18.7 13.9 4.5 39 6.8 S 19 24 10 13 1021.0 1021.0 0.0
23/12:30pm 19.0 14.3 6.1 43 6.4 S 20 26 11 14 1021.1 1021.1 0.0
23/12:00pm 17.3 12.2 6.2 48 5.4 S 22 32 12 17 1021.5 1021.5 0.0
23/11:30am 16.3 10.7 7.3 55 4.5 S 26 35 14 19 1021.8 1021.8 0.0
23/11:00am 15.5 10.4 7.8 60 3.8 S 24 32 13 17 1022.0 1022.0 0.0
23/10:30am 15.2 9.8 8.2 63 3.5 SSE 26 35 14 19 1022.2 1022.2 0.0
23/10:00am 14.2 8.5 8.2 67 3.0 SSE 28 41 15 22 1022.4 1022.4 0.0
23/09:30am 13.2 6.9 7.6 69 2.7 SSE 30 41 16 22 1022.2 1022.2 0.0
23/09:00am 12.6 6.4 7.7 72 2.4 SSE 30 37 16 20 1022.3 1022.3 0.0
23/08:30am 11.3 5.2 6.8 74 2.1 SSE 28 35 15 19 1022.6 1022.6 0.0
23/08:00am 10.3 3.8 6.5 77 1.8 SE 30 39 16 21 1022.5 1022.5 0.0
23/07:30am 9.7 2.6 6.4 80 1.5 SSE 33 46 18 25 1022.3 1022.3 0.0
23/07:00am 9.3 2.3 6.9 85 1.1 SSE 33 44 18 24 1022.0 1022.0 0.0
23/06:30am 9.0 3.1 7.5 90 0.7 SSE 28 39 15 21 1021.6 1021.6 0.0
23/06:00am 9.2 3.7 7.6 90 0.8 SSE 26 39 14 21 1021.2 1021.2 0.0
23/05:30am 9.4 2.7 7.5 88 0.9 SSE 32 43 17 23 1020.9 1020.9 0.0
23/05:00am 9.9 4.1 8.0 88 0.9 SSE 28 39 15 21 1020.7 1020.7 0.0
23/04:46am 9.8 3.6 7.9 88 0.9 SSE 30 43 16 23 1020.6 1020.6 0.0
23/04:38am 9.7 3.9 8.0 89 0.8 SSE 28 39 15 21 1020.6 1020.6 0.0
23/04:31am 9.6 3.8 7.9 89 0.8 SSE 28 46 15 25 1020.5 1020.5 0.0
23/04:30am 9.7 3.5 8.0 89 0.8 SSE 30 46 16 25 1020.5 1020.5 0.0
23/04:00am 10.4 3.9 8.2 86 1.1 SSE 32 43 17 23 1020.4 1020.4 0.0
23/03:30am 10.8 5.5 8.6 86 1.1 SSE 26 37 14 20 1020.5 1020.5 0.0
23/03:06am 11.2 7.2 8.9 86 1.1 SSE 20 28 11 15 1020.5 1020.5 0.0
23/03:00am 11.3 6.9 9.0 86 1.1 SSE 22 32 12 17 1020.5 1020.5 0.0
23/02:30am 11.4 5.9 9.1 86 1.1 SSE 28 35 15 19 1020.4 1020.4 0.0
23/02:29am 11.4 5.9 9.1 86 1.1 SSE 28 35 15 19 1020.3 1020.3 0.0
23/02:00am 11.6 6.2 9.5 87 1.1 SSE 28 37 15 20 1020.3 1020.3 0.0
23/01:48am 11.8 6.5 9.7 87 1.1 SSE 28 39 15 21 1020.3 1020.3 0.0
23/01:30am 12.0 5.9 9.9 87 1.1 SSE 32 44 17 24 1020.4 1020.4 0.0
23/01:00am 12.2 6.9 9.8 85 1.2 SSE 28 39 15 21 1020.5 1020.5 0.0
23/12:30am 12.3 7.0 9.9 85 1.2 SSE 28 41 15 22 1020.5 1020.5 0.0
23/12:10am 12.2 7.7 9.9 86 1.2 SSE 24 37 13 20 1020.7 1020.7 0.0
23/12:00am 12.1 7.2 10.0 87 1.1 SSE 26 35 14 19 1020.8 1020.8 0.0
 
Date/Time
EDT
Temp
°C
App
Temp
°C
Dew
Point
Rel
Hum
%
Delta-T
°C
Wind Press
QNH
hPa
Press
MSL
hPa
Rain
since 9 am
mm
Dir
 
Spd
km/h
Gust
km/h
Spd
kts
Gust
kts
22/11:30pm 12.1 7.7 10.3 89 0.9 S 24 35 13 19 1020.8 1020.8 0.0
22/11:00pm 12.3 8.8 11.0 92 0.7 S 20 26 11 14 1020.4 1020.4 0.0
22/10:30pm 12.6 9.8 11.3 92 0.7 SSE 17 24 9 13 1019.8 1019.8 0.0
22/10:00pm 12.5 9.3 12.0 97 0.3 SSE 20 28 11 15 1019.4 1019.4 0.0
22/09:30pm 12.9 10.4 12.3 96 0.3 SSE 17 26 9 14 1019.2 1019.2 0.0
22/09:00pm 12.4 9.8 11.9 97 0.3 S 17 22 9 12 1019.2 1019.2 0.0
22/08:30pm 12.5 10.2 11.9 96 0.3 S 15 20 8 11 1018.8 1018.8 0.0
22/08:00pm 12.7 10.4 11.6 93 0.6 SSW 15 20 8 11 1018.7 1018.7 0.0
22/07:30pm 13.0 10.7 11.7 92 0.7 S 15 19 8 10 1018.3 1018.3 0.0
22/07:21pm 13.0 11.0 11.6 91 0.7 SSW 13 17 7 9 1018.2 1018.2 0.0
22/07:02pm 13.3 10.2 11.7 90 0.9 SW 19 24 10 13 1018.1 1018.1 0.0
22/07:00pm 13.3 10.2 11.7 90 0.9 SW 19 24 10 13 1018.1 1018.1 0.0
22/06:59pm 13.4 10.4 11.8 90 0.9 SW 19 24 10 13 1018.1 1018.1 0.0
22/06:48pm 13.6 10.4 11.8 89 1.0 SW 20 28 11 15 1018.1 1018.1 0.0
22/06:38pm 14.1 11.4 11.6 85 1.3 SW 17 24 9 13 1018.0 1018.0 0.0
22/06:30pm 14.4 12.1 11.7 84 1.5 SW 15 20 8 11 1017.8 1017.8 0.0
22/06:00pm 14.9 11.7 11.3 79 1.9 WSW 19 24 10 13 1017.7 1017.7 0.0
22/05:30pm 14.2 11.2 10.6 79 1.9 SW 17 22 9 12 1017.4 1017.4 0.0
22/05:00pm 15.1 12.8 10.3 73 2.5 W 13 20 7 11 1017.1 1017.1 0.0
22/04:30pm 15.3 13.9 10.9 75 2.3 WSW 9 13 5 7 1016.8 1016.8 0.0
22/04:00pm 15.3 14.2 10.7 74 2.4 W 7 9 4 5 1016.2 1016.2 0.0
22/03:30pm 15.8 14.7 10.6 71 2.8 S 7 13 4 7 1016.1 1016.1 0.0
22/03:00pm 16.6 12.7 10.9 69 3.0 WSW 22 28 12 15 1016.2 1016.2 0.0
22/02:30pm 16.5 11.7 10.4 67 3.2 WSW 26 37 14 20 1016.0 1016.0 0.0
22/02:00pm 20.6 18.1 9.8 50 5.8 W 13 17 7 9 1015.2 1015.3 0.0
22/01:30pm 22.7 20.1 9.5 43 7.1 N 13 17 7 9 1014.9 1015.0 0.0
22/01:00pm 22.2 18.1 8.0 40 7.4 N 19 24 10 13 1014.7 1014.8 0.0
22/12:30pm 23.2 18.9 7.7 37 8.1 N 20 30 11 16 1014.5 1014.6 0.0
22/12:00pm 22.4 17.9 7.0 37 7.9 NNE 20 30 11 16 1015.0 1015.1 0.0
22/11:30am 21.7 17.0 6.0 36 7.9 NNE 20 30 11 16 1016.1 1016.1 0.0
22/11:00am 21.9 17.2 6.2 36 7.9 NNE 20 33 11 18 1016.5 1016.5 0.0
22/10:30am 20.4 16.3 6.0 39 7.2 NNE 17 28 9 15 1016.7 1016.7 0.0
22/10:00am 18.3 13.1 5.5 43 6.2 NNE 22 32 12 17 1017.0 1017.0 0.0
22/09:30am 17.9 12.1 4.5 41 6.4 NNE 24 35 13 19 1017.1 1017.1 0.0
22/09:00am 15.8 10.6 3.6 44 5.6 NNE 20 32 11 17 1017.4 1017.4 0.0
22/08:30am 13.9 8.3 3.7 50 4.6 NNE 22 32 12 17 1017.7 1017.7 0.0
22/08:00am 12.2 7.0 2.6 52 4.2 NNE 19 37 10 20 1017.8 1017.8 0.0
22/07:30am 10.6 5.9 2.9 59 3.3 NNE 17 26 9 14 1018.3 1018.3 0.0
22/07:00am 8.6 4.6 2.6 66 2.5 NNE 13 22 7 12 1018.5 1018.5 0.0
22/06:30am 8.1 4.0 2.1 66 2.5 NE 13 19 7 10 1018.6 1018.6 0.0
22/06:00am 7.9 4.5 1.7 65 2.5 NNE 9 13 5 7 1018.8 1018.8 0.0
22/05:30am 8.0 4.6 1.8 65 2.5 NE 9 15 5 8 1018.9 1018.9 0.0
22/05:00am 8.2 4.8 2.0 65 2.6 NE 9 13 5 7 1019.1 1019.1 0.0
22/04:30am 8.1 4.4 2.1 66 2.5 NE 11 20 6 11 1019.3 1019.3 0.0
22/04:00am 8.0 4.7 2.3 67 2.4 NE 9 17 5 9 1019.6 1019.6 0.0
22/03:30am 7.4 3.7 2.3 70 2.1 ENE 11 15 6 8 1020.0 1020.0 0.0
22/03:00am 7.4 4.6 2.9 73 1.9 ENE 7 11 4 6 1020.8 1020.8 0.0
22/02:30am 6.7 3.9 3.0 77 1.5 NE 7 13 4 7 1021.0 1021.0 0.0
22/02:00am 6.3 2.3 3.1 80 1.3 NNE 13 17 7 9 1021.7 1021.7 0.0
22/01:30am 5.7 2.4 2.5 80 1.3 N 9 11 5 6 1022.5 1022.5 0.0
22/01:00am 6.7 3.6 3.5 80 1.3 NNE 9 11 5 6 1023.0 1023.0 0.0
22/12:30am 6.3 3.1 3.1 80 1.3 N 9 11 5 6 1023.3 1023.3 0.0
22/12:00am 7.4 4.8 4.0 79 1.5 N 7 9 4 5 1023.7 1023.7 0.0
 
Date/Time
EDT
Temp
°C
App
Temp
°C
Dew
Point
Rel
Hum
%
Delta-T
°C
Wind Press
QNH
hPa
Press
MSL
hPa
Rain
since 9 am
mm
Dir
 
Spd
km/h
Gust
km/h
Spd
kts
Gust
kts
21/11:30pm 6.9 3.5 4.0 82 1.2 N 11 13 6 7 1024.0 1024.0 0.0
21/11:00pm 7.0 4.1 4.5 84 1.1 N 9 13 5 7 1024.3 1024.3 0.0
21/10:30pm 7.1 4.6 4.6 84 1.1 ENE 7 13 4 7 1024.5 1024.5 0.0
21/10:00pm 7.3 4.8 4.8 84 1.1 N 7 11 4 6 1025.1 1025.1 0.0
21/09:30pm 7.9 5.1 5.2 83 1.2 N 9 9 5 5 1025.4 1025.4 0.0
21/09:00pm 8.2 5.5 5.8 85 1.1 N 9 13 5 7 1025.5 1025.5 0.0
21/08:30pm 9.7 7.5 6.4 80 1.5 N 7 9 4 5 1025.5 1025.5 0.0
21/08:00pm 10.7 8.6 6.6 76 1.9 NNW 7 9 4 5 1025.8 1025.8 0.0
21/07:30pm 12.5 10.6 6.8 68 2.7 WNW 6 9 3 5 1025.6 1025.6 0.0
21/07:00pm 14.4 11.8 6.3 58 3.9 W 9 11 5 6 1025.5 1025.5 0.0
21/06:30pm 15.8 12.7 5.7 51 4.8 W 11 13 6 7 1025.6 1025.6 0.0
21/06:00pm 16.7 13.8 4.7 45 5.6 SSW 9 13 5 7 1025.7 1025.7 0.0
21/05:30pm 16.8 12.0 4.5 44 5.8 W 19 24 10 13 1026.1 1026.1 0.0
21/05:00pm 17.8 14.5 4.4 41 6.3 SSW 11 20 6 11 1026.3 1026.3 0.0
21/04:30pm 17.7 14.0 4.6 42 6.2 WSW 13 17 7 9 1026.5 1026.5 0.0
21/04:00pm 17.6 13.5 4.5 42 6.2 WSW 15 20 8 11 1027.1 1027.1 0.0
21/03:30pm 18.3 14.9 5.8 44 6.1 SSW 13 24 7 13 1027.3 1027.3 0.0
21/03:00pm 17.8 14.2 5.1 43 6.1 SSW 13 20 7 11 1027.6 1027.6 0.0
21/02:30pm 17.4 13.8 5.0 44 5.9 S 13 19 7 10 1028.1 1028.1 0.0
21/02:26pm 17.4 13.9 5.4 45 5.8 S 13 19 7 10 1028.2 1028.2 0.0
21/02:12pm 17.0 12.9 4.3 43 6.0 SSE 15 22 8 12 1028.3 1028.3 0.0
21/02:00pm 17.0 12.9 4.3 43 5.9 SSE 15 20 8 11 1028.6 1028.6 0.0
21/01:30pm 16.2 12.5 4.6 46 5.5 SSE 13 22 7 12 1029.0 1029.0 0.0
21/01:00pm 15.4 11.2 3.9 46 5.3 SSE 15 20 8 11 1029.5 1029.5 0.0
21/12:30pm 15.1 11.4 4.2 48 5.0 SSE 13 20 7 11 1030.0 1030.0 0.0
21/12:00pm 14.8 10.7 4.2 49 4.9 SSE 15 24 8 13 1030.5 1030.5 0.0
21/11:30am 14.1 10.0 4.1 51 4.6 SSE 15 20 8 11 1030.8 1030.8 0.0
21/11:00am 14.2 10.7 3.4 48 4.8 SSE 11 17 6 9 1031.2 1031.2 0.0
21/10:30am 13.8 10.5 2.7 47 4.9 ESE 9 19 5 10 1031.5 1031.5 0.0
21/10:00am 12.5 9.3 2.9 52 4.2 E 9 17 5 9 1031.6 1031.6 0.0
21/09:30am 12.1 8.9 3.3 55 3.9 NE 9 15 5 8 1032.0 1032.0 0.0
21/09:00am 10.2 6.6 3.0 61 3.1 E 11 15 6 8 1032.2 1032.2 0.0
21/08:30am 8.7 5.2 3.7 71 2.2 NE 11 17 6 9 1032.3 1032.3 0.0
21/08:00am 6.5 3.5 4.2 85 1.0 NE 9 11 5 6 1032.4 1032.4 0.0
21/07:30am 3.8 1.1 2.9 94 0.4 NE 6 7 3 4 1032.8 1032.8 0.0
21/07:00am 2.3 -0.8 1.6 95 0.3 NE 7 9 4 5 1032.5 1032.5 0.0
21/06:30am 1.1 -2.6 0.2 94 0.3 ENE 9 9 5 5 1032.5 1032.5 0.0
21/06:00am 1.1 -1.6 0.2 94 0.3 NE 4 9 2 5 1032.3 1032.3 0.0
21/05:30am 1.5 -1.5 0.5 93 0.4 NNE 6 11 3 6 1032.1 1032.1 0.0
21/05:00am 2.6 -0.5 1.6 93 0.4 E 7 9 4 5 1031.6 1031.6 0.0
21/04:30am 2.7 -1.2 1.4 91 0.5 NE 11 13 6 7 1031.4 1031.4 0.0
21/04:00am 2.5 -1.4 1.2 91 0.5 NE 11 13 6 7 1031.6 1031.6 0.0
21/03:30am 2.0 -1.3 0.4 89 0.6 N 7 9 4 5 1031.9 1031.9 0.0
21/03:00am 2.0 -0.7 0.4 89 0.6 ENE 4 7 2 4 1032.2 1032.2 0.0
21/02:30am 2.9 -1.0 1.4 90 0.6 NE 11 13 6 7 1032.5 1032.5 0.0
21/02:00am 2.4 -0.8 0.5 87 0.7 N 7 11 4 6 1032.8 1032.8 0.0
21/01:30am 3.7 -0.5 1.9 88 0.7 NNE 13 19 7 10 1032.9 1032.9 0.0

Other Formats:

Comma delimited format used in spreadsheet applications
http://www.bom.gov.au/fwo/IDT60801/IDT60801.94956.axf

JavaScript Object Notation format (JSON) in row-major order
http://www.bom.gov.au/fwo/IDT60801/IDT60801.94956.json